Time;durP1;ratioP1;P1;durP2;ratioP2;P2;SDS_P1;SDS_P2;PMS_P1;PMS_P2;Temp;Humidity;BMP_temperature;BMP_pressure;BME280_temperature;BME280_humidity;BME280_pressure;Samples;Min_cycle;Max_cycle;Signal;HPM_P1;HPM_P2
2023/10/21 00:01:32;;;;;;;;;6.33;6.33;;;;;22.98;51.73;97771.03;6313979;20;2740060;-48
2023/10/21 00:04:00;;;;;;;;;11.33;10.33;;;;;22.98;51.42;97771.03;6317735;20;2785834;-48
2023/10/21 00:06:29;;;;;;;;;8.00;8.00;;;;;22.95;51.94;97771.47;6312671;20;3457534;-48
2023/10/21 00:08:58;;;;;;;;;11.33;11.33;;;;;22.94;51.57;97767.06;6314211;20;3508629;-38
2023/10/21 00:11:27;;;;;;;;;14.67;11.67;;;;;22.99;51.01;97772.75;6315216;20;2491951;-38
2023/10/21 00:13:55;;;;;;;;;13.00;9.00;;;;;22.91;51.21;97774.88;6311689;20;3493066;-38
2023/10/21 00:16:24;;;;;;;;;15.33;12.00;;;;;22.89;51.88;97775.09;6312144;20;3530694;-39
2023/10/21 00:18:53;;;;;;;;;15.67;10.00;;;;;22.92;51.25;97774.66;6281071;20;3508817;-38
2023/10/21 00:21:22;;;;;;;;;14.00;10.00;;;;;22.76;52.08;97775.16;6311900;20;3513831;-38
2023/10/21 00:23:50;;;;;;;;;15.33;13.00;;;;;22.94;51.60;97775.28;6285763;20;2783663;-38
2023/10/21 00:26:19;;;;;;;;;12.33;10.67;;;;;23.00;51.55;97773.56;6315802;20;2783762;-38
2023/10/21 00:28:48;;;;;;;;;13.00;11.00;;;;;22.93;51.64;97778.22;6312739;20;3522210;-38
2023/10/21 00:31:16;;;;;;;;;13.67;11.00;;;;;22.96;51.01;97773.19;6280388;20;3513917;-39
2023/10/21 00:33:45;;;;;;;;;11.33;9.67;;;;;23.05;51.30;97775.66;6313878;20;3501551;-37
2023/10/21 00:36:14;;;;;;;;;16.00;12.00;;;;;22.99;51.17;97774.66;6311082;20;3529494;-39
2023/10/21 00:38:42;;;;;;;;;15.00;13.00;;;;;22.90;51.86;97784.97;6309664;20;2779606;-38
2023/10/21 00:41:12;;;;;;;;;16.00;10.00;;;;;22.91;51.28;97780.34;6315723;20;2785737;-38
2023/10/21 00:43:42;;;;;;;;;16.00;12.00;;;;;22.92;51.70;97766.44;6313234;20;3517078;-49
2023/10/21 00:46:17;;;;;;;;;7.80;5.00;;;;;22.87;51.73;97768.16;6340495;20;2725350;-48
2023/10/21 00:48:48;;;;;;;;;15.67;12.00;;;;;22.83;52.00;97772.38;6315016;20;2492026;-48
2023/10/21 00:51:17;;;;;;;;;14.33;9.00;;;;;22.78;52.05;97775.78;6312649;20;3488789;-38
2023/10/21 00:53:47;;;;;;;;;14.00;11.67;;;;;22.81;51.94;97775.34;6313154;20;3526369;-37
2023/10/21 00:56:18;;;;;;;;;14.67;11.67;;;;;22.90;51.88;97779.50;6310238;20;2485800;-38
2023/10/21 00:58:47;;;;;;;;;13.33;11.00;;;;;22.79;51.64;97777.47;6309935;20;2492030;-38
2023/10/21 01:01:16;;;;;;;;;8.67;7.33;;;;;22.80;51.86;97770.91;6314081;20;2755518;-38
2023/10/21 01:03:44;;;;;;;;;10.67;9.67;;;;;22.70;52.31;97767.84;6309883;20;3489970;-39
2023/10/21 01:06:14;;;;;;;;;16.33;12.00;;;;;22.66;51.83;97778.38;6310312;20;3523210;-38
2023/10/21 01:08:47;;;;;;;;;16.00;10.00;;;;;22.76;52.41;97772.44;6282852;20;2483854;-48
2023/10/21 01:11:16;;;;;;;;;13.67;11.00;;;;;22.69;52.23;97777.09;6312121;20;3509747;-48
2023/10/21 01:13:45;;;;;;;;;14.67;10.67;;;;;22.79;52.66;97789.25;6315445;20;2799344;-50
2023/10/21 01:16:14;;;;;;;;;11.00;11.00;;;;;22.73;51.95;97792.03;6308829;20;3514864;-48
2023/10/21 01:18:43;;;;;;;;;16.00;10.67;;;;;22.65;52.72;97800.50;6276648;20;3530023;-48
2023/10/21 01:21:12;;;;;;;;;11.33;10.00;;;;;22.65;52.52;97795.84;6278889;20;3510733;-48
2023/10/21 01:23:40;;;;;;;;;14.67;8.67;;;;;22.55;53.07;97801.78;6283279;20;2779464;-48
2023/10/21 01:26:09;;;;;;;;;15.33;10.67;;;;;22.64;52.40;97796.91;6313604;20;2791118;-48
2023/10/21 01:28:38;;;;;;;;;9.00;8.67;;;;;22.56;53.04;97789.81;6307067;20;2759836;-48
2023/10/21 01:31:06;;;;;;;;;10.00;8.00;;;;;22.57;52.20;97791.47;6318012;20;2771160;-48
2023/10/21 01:33:35;;;;;;;;;9.67;8.67;;;;;22.60;52.59;97792.09;6307847;20;3479524;-48
2023/10/21 01:36:04;;;;;;;;;14.67;11.00;;;;;22.57;52.78;97796.94;6307973;20;3530465;-48
2023/10/21 01:38:33;;;;;;;;;17.00;9.00;;;;;22.47;53.00;97793.84;6306503;20;3514973;-48
2023/10/21 01:41:02;;;;;;;;;12.00;11.00;;;;;22.59;52.90;97796.72;6279529;20;2792041;-48
2023/10/21 01:43:31;;;;;;;;;10.00;9.00;;;;;22.62;52.19;97804.50;6317512;20;2770217;-48
2023/10/21 01:46:07;;;;;;;;;11.67;10.00;;;;;22.63;52.53;97810.81;6312190;20;2792105;-38
2023/10/21 01:48:36;;;;;;;;;13.67;10.00;;;;;22.71;52.28;97810.56;6308239;20;3519014;-37
2023/10/21 01:51:05;;;;;;;;;9.67;9.33;;;;;22.65;52.65;97814.19;6311076;20;3491040;-38
2023/10/21 01:53:33;;;;;;;;;12.67;10.33;;;;;22.53;53.27;97816.75;6315518;20;2793014;-48
2023/10/21 01:56:03;;;;;;;;;11.33;9.00;;;;;22.63;52.68;97810.81;6308733;20;3493024;-48
2023/10/21 01:58:32;;;;;;;;;15.00;11.00;;;;;22.67;52.04;97812.03;6315384;20;2802974;-48
2023/10/21 02:01:09;;;;;;;;;11.00;10.00;;;;;22.38;53.67;97814.28;6311838;20;2788828;-38
2023/10/21 02:03:42;;;;;;;;;10.67;9.00;;;;;22.54;52.54;97815.69;6311665;20;3485840;-38
2023/10/21 02:06:11;;;;;;;;;14.00;10.67;;;;;22.52;52.86;97815.06;6313930;20;2794055;-38
2023/10/21 02:08:39;;;;;;;;;15.00;10.00;;;;;22.37;53.73;97817.22;6306787;20;3520086;-37
2023/10/21 02:11:08;;;;;;;;;10.33;8.33;;;;;22.39;53.71;97824.16;6276448;20;2773369;-38
2023/10/21 02:13:37;;;;;;;;;15.00;9.00;;;;;22.39;53.31;97826.91;6308045;20;2780596;-38
2023/10/21 02:16:10;;;;;;;;;14.67;10.33;;;;;22.40;53.53;97827.72;6316184;20;2786939;-38
2023/10/21 02:18:39;;;;;;;;;12.00;9.00;;;;;22.44;53.16;97829.81;6311273;20;3489848;-48
2023/10/21 02:21:08;;;;;;;;;15.00;8.00;;;;;22.35;53.94;97836.56;6322986;20;2693038;-47
2023/10/21 02:23:36;;;;;;;;;9.67;8.00;;;;;22.34;53.93;97837.63;6318064;20;2757673;-48
2023/10/21 02:26:07;;;;;;;;;9.67;9.67;;;;;22.31;53.94;97851.75;6310008;20;3494133;-48
2023/10/21 02:28:35;;;;;;;;;9.00;7.00;;;;;22.18;54.44;97858.06;6317547;20;2739902;-48
2023/10/21 02:31:04;;;;;;;;;15.33;7.67;;;;;22.23;54.22;97854.72;6311258;20;3506568;-38
2023/10/21 02:33:33;;;;;;;;;10.00;7.33;;;;;22.35;54.48;97858.44;6309288;20;2773230;-38
2023/10/21 02:36:02;;;;;;;;;7.67;7.00;;;;;22.40;53.30;97855.06;6309489;20;2736864;-37
2023/10/21 02:38:31;;;;;;;;;12.00;9.33;;;;;22.38;53.66;97852.56;6311826;20;2778511;-38
2023/10/21 02:40:59;;;;;;;;;9.67;8.00;;;;;22.33;53.94;97849.66;6317529;20;2759627;-38
2023/10/21 02:43:28;;;;;;;;;13.00;8.00;;;;;22.40;53.61;97850.44;6309865;20;2787861;-38
2023/10/21 02:45:57;;;;;;;;;19.00;9.67;;;;;22.44;53.82;97846.22;6309457;20;3545069;-38
2023/10/21 02:48:25;;;;;;;;;8.00;8.00;;;;;22.39;53.92;97854.25;6281169;20;2748205;-38
2023/10/21 02:50:54;;;;;;;;;15.00;6.33;;;;;22.57;53.64;97862.59;6316868;20;2786132;-38
2023/10/21 02:53:22;;;;;;;;;11.00;7.00;;;;;22.45;53.86;97863.47;6310695;20;2754550;-38
2023/10/21 02:55:51;;;;;;;;;12.67;11.00;;;;;22.34;53.95;97867.72;6314636;20;2793009;-37
2023/10/21 02:58:20;;;;;;;;;9.00;9.00;;;;;22.40;53.75;97872.31;6315052;20;2769000;-40
2023/10/21 03:00:48;;;;;;;;;13.00;9.33;;;;;22.49;54.11;97881.97;6307916;20;3495440;-38
2023/10/21 03:03:18;;;;;;;;;10.60;6.00;;;;;22.43;54.46;97873.78;6337126;20;2752344;-38
2023/10/21 03:05:47;;;;;;;;;12.33;9.00;;;;;22.32;54.67;97865.19;6286304;20;2771236;-37
2023/10/21 03:08:15;;;;;;;;;10.67;9.00;;;;;22.27;54.96;97869.63;6309416;20;2770189;-37
2023/10/21 03:10:44;;;;;;;;;14.00;8.33;;;;;22.38;54.60;97871.72;6307244;20;2764883;-38
2023/10/21 03:13:12;;;;;;;;;9.00;6.67;;;;;22.34;54.21;97886.84;6320485;20;2736779;-39
2023/10/21 03:15:42;;;;;;;;;9.67;8.00;;;;;22.34;54.44;97886.84;6305376;20;3480562;-49
2023/10/21 03:18:10;;;;;;;;;9.67;8.00;;;;;22.16;55.90;97895.69;6320110;20;2770508;-48
2023/10/21 03:20:39;;;;;;;;;13.00;8.67;;;;;22.18;55.64;97890.03;6321003;20;3487717;-38
2023/10/21 03:23:10;;;;;;;;;4.40;3.00;;;;;22.27;55.02;97884.13;6348640;20;2737788;-38
2023/10/21 03:25:38;;;;;;;;;11.00;9.00;;;;;22.24;55.16;97881.00;6319302;20;3483717;-38
2023/10/21 03:28:07;;;;;;;;;10.33;8.00;;;;;22.16;55.60;97887.50;6324144;20;2769055;-38
2023/10/21 03:30:35;;;;;;;;;11.00;10.00;;;;;22.10;55.63;97894.66;6318297;20;3505524;-38
2023/10/21 03:33:04;;;;;;;;;15.33;8.67;;;;;22.12;56.02;97908.13;6317940;20;3504501;-38
2023/10/21 03:35:33;;;;;;;;;10.33;9.00;;;;;22.11;56.23;97918.19;6319108;20;2776442;-38
2023/10/21 03:38:01;;;;;;;;;11.33;9.33;;;;;22.00;55.94;97926.19;6319102;20;3492975;-37
2023/10/21 03:40:30;;;;;;;;;10.00;8.33;;;;;21.98;55.93;97912.72;6318951;20;2769090;-38
2023/10/21 03:42:58;;;;;;;;;14.00;8.33;;;;;22.04;56.04;97911.91;6316944;20;2767979;-38
2023/10/21 03:45:28;;;;;;;;;12.33;9.00;;;;;22.04;55.83;97903.72;6320183;20;3472327;-38
2023/10/21 03:47:57;;;;;;;;;14.00;8.67;;;;;21.91;56.62;97911.91;6318821;20;3496113;-48
2023/10/21 03:50:26;;;;;;;;;12.33;10.00;;;;;21.92;56.83;97919.06;6319170;20;3518012;-48
2023/10/21 03:52:54;;;;;;;;;17.33;10.00;;;;;21.87;56.57;97927.88;6324189;20;2817059;-38
2023/10/21 03:55:23;;;;;;;;;13.33;10.00;;;;;21.88;57.29;97928.72;6322044;20;2781787;-39
2023/10/21 03:57:51;;;;;;;;;10.00;7.67;;;;;21.91;56.97;97928.31;6327136;20;2752504;-38
2023/10/21 04:00:21;;;;;;;;;9.67;7.67;;;;;21.75;57.70;97929.56;6317684;20;3472220;-49
2023/10/21 04:02:50;;;;;;;;;14.67;9.00;;;;;21.81;57.55;97930.63;6326689;20;2783556;-38
2023/10/21 04:05:18;;;;;;;;;8.67;8.67;;;;;21.67;57.92;97941.53;6321829;20;2757618;-38
2023/10/21 04:07:47;;;;;;;;;7.00;7.00;;;;;21.80;57.47;97934.38;6326530;20;2744052;-38
2023/10/21 04:10:15;;;;;;;;;18.33;10.00;;;;;21.85;57.24;97937.34;6322741;20;2807980;-38
2023/10/21 04:12:47;;;;;;;;;10.67;9.33;;;;;21.82;57.57;97940.50;6324989;20;2777392;-38
2023/10/21 04:15:16;;;;;;;;;14.33;9.67;;;;;21.67;58.51;97955.19;6324267;20;2788937;-38
2023/10/21 04:17:47;;;;;;;;;12.00;7.00;;;;;21.75;58.02;97945.09;6318734;20;3487796;-42
2023/10/21 04:20:17;;;;;;;;;10.60;8.80;;;;;21.74;58.21;97959.81;6343267;20;2775368;-38
2023/10/21 04:22:46;;;;;;;;;14.33;9.00;;;;;21.61;58.13;97961.47;6287842;20;3502484;-38
2023/10/21 04:25:14;;;;;;;;;10.67;9.33;;;;;21.56;58.63;97969.44;6326924;20;2777490;-38
2023/10/21 04:27:44;;;;;;;;;11.33;8.33;;;;;21.52;59.12;97972.81;6325118;20;2760873;-39
2023/10/21 04:30:13;;;;;;;;;12.33;7.67;;;;;21.57;58.63;97987.53;6308342;20;3479426;-40
2023/10/21 04:32:42;;;;;;;;;11.60;9.20;;;;;21.59;58.57;97984.56;6337342;20;2779461;-39
2023/10/21 04:35:12;;;;;;;;;11.80;7.40;;;;;21.57;58.72;97993.00;6310468;20;2769277;-40
2023/10/21 04:37:41;;;;;;;;;11.67;8.00;;;;;21.68;58.47;97995.13;6286710;20;2786943;-39
2023/10/21 04:40:11;;;;;;;;;12.67;8.67;;;;;21.61;58.86;97999.72;6320392;20;2771112;-39
2023/10/21 04:42:40;;;;;;;;;4.33;2.67;;;;;21.58;59.00;98016.50;6324511;20;2725378;-40
2023/10/21 04:45:10;;;;;;;;;9.80;8.60;;;;;21.57;58.64;98028.50;6337680;20;2758344;-39
2023/10/21 04:47:39;;;;;;;;;9.67;8.67;;;;;21.59;58.99;98031.88;6289236;20;2760799;-39
2023/10/21 04:50:08;;;;;;;;;13.67;10.00;;;;;21.68;58.56;98021.59;6311667;20;3512805;-39
2023/10/21 04:52:38;;;;;;;;;14.33;10.67;;;;;21.75;58.79;98032.53;6317203;20;2794168;-38
2023/10/21 04:55:08;;;;;;;;;11.67;9.00;;;;;21.75;58.78;98032.53;6310496;20;3492059;-38
2023/10/21 04:57:37;;;;;;;;;10.00;7.00;;;;;21.81;59.07;98038.00;6307011;20;3481640;-39
2023/10/21 05:00:08;;;;;;;;;11.40;9.80;;;;;21.70;60.76;98044.09;6336253;20;2794215;-38
2023/10/21 05:02:37;;;;;;;;;6.67;6.67;;;;;21.70;60.99;98061.31;6284088;20;2744154;-39
2023/10/21 05:05:06;;;;;;;;;9.67;7.67;;;;;21.72;61.72;98065.72;6314696;20;2748250;-39
2023/10/21 05:07:35;;;;;;;;;8.33;6.33;;;;;21.69;62.66;98067.81;6306582;20;2749440;-39
2023/10/21 05:10:04;;;;;;;;;11.33;7.00;;;;;21.62;63.40;98075.16;6319689;20;2759707;-39
2023/10/21 05:12:33;;;;;;;;;9.00;7.67;;;;;21.58;63.96;98082.06;6314276;20;2740915;-38
2023/10/21 05:15:02;;;;;;;;;7.00;5.33;;;;;21.51;65.28;98091.28;6311949;20;2736820;-39
2023/10/21 05:17:32;;;;;;;;;6.80;5.60;;;;;21.39;66.36;98093.75;6335186;20;2752380;-39
2023/10/21 05:20:03;;;;;;;;;9.00;5.00;;;;;21.45;66.87;98101.97;6309525;20;2762807;-39
2023/10/21 05:22:31;;;;;;;;;5.00;5.00;;;;;21.39;67.73;98104.69;6280039;20;2748230;-39
2023/10/21 05:25:01;;;;;;;;;5.60;4.60;;;;;20.88;75.40;98094.91;6338339;20;2754569;-40
2023/10/21 05:27:30;;;;;;;;;6.67;3.67;;;;;20.58;78.43;98094.25;6276307;20;2752354;-39
2023/10/21 05:29:59;;;;;;;;;7.80;5.20;;;;;20.51;79.42;98110.56;6336213;20;2744071;-39
2023/10/21 05:32:29;;;;;;;;;3.60;1.80;;;;;20.47;79.59;98108.41;6306862;20;2756924;-39
2023/10/21 05:34:59;;;;;;;;;4.20;3.20;;;;;20.34;80.35;98115.41;6306354;20;2744010;-39
2023/10/21 05:37:28;;;;;;;;;3.40;1.60;;;;;20.44;78.65;98116.97;6334863;20;2755609;-40
2023/10/21 05:39:58;;;;;;;;;2.20;2.20;;;;;20.26;79.65;98115.56;6307666;20;2748247;-39
2023/10/21 05:42:27;;;;;;;;;2.67;2.33;;;;;20.05;80.90;98115.56;6282734;20;2754498;-39
2023/10/21 05:44:56;;;;;;;;;8.20;3.40;;;;;20.02;81.91;98107.78;6337107;20;2756559;-39
2023/10/21 05:47:26;;;;;;;;;5.00;3.00;;;;;20.13;81.43;98120.88;6304705;20;2754503;-40
2023/10/21 05:49:56;;;;;;;;;4.80;2.80;;;;;20.25;80.50;98113.88;6304254;20;2749284;-38
2023/10/21 05:52:24;;;;;;;;;10.33;6.33;;;;;20.02;81.75;98102.31;6287741;20;2751412;-40
2023/10/21 05:54:53;;;;;;;;;9.33;8.00;;;;;20.04;81.99;98101.09;6312209;20;2759662;-41
2023/10/21 05:57:22;;;;;;;;;8.40;6.00;;;;;20.19;79.44;98095.56;6334255;20;2742809;-39
2023/10/21 05:59:51;;;;;;;;;5.67;5.67;;;;;20.24;78.25;98095.81;6317375;20;2738949;-39
2023/10/21 06:02:20;;;;;;;;;5.60;5.60;;;;;20.16;78.97;98098.69;6336353;20;2737776;-39
2023/10/21 06:04:49;;;;;;;;;7.67;6.00;;;;;20.11;78.87;98107.44;6312718;20;2744121;-40
2023/10/21 06:07:18;;;;;;;;;4.20;1.60;;;;;20.16;79.26;98104.13;6331780;20;2744003;-40
2023/10/21 06:09:47;;;;;;;;;1.67;1.67;;;;;20.15;79.12;98102.44;6316672;20;2737961;-39
2023/10/21 06:12:17;;;;;;;;;3.20;3.00;;;;;20.13;79.13;98101.78;6334322;20;2744082;-48
2023/10/21 06:14:47;;;;;;;;;3.80;1.60;;;;;20.13;78.36;98112.69;6338513;20;2754511;-47
2023/10/21 06:17:16;;;;;;;;;5.00;4.20;;;;;20.20;77.83;98113.63;6302140;20;2748274;-47
2023/10/21 06:19:46;;;;;;;;;4.20;2.40;;;;;20.06;78.16;98118.06;6305975;20;2756760;-47
2023/10/21 06:22:16;;;;;;;;;5.00;2.00;;;;;19.86;79.02;98109.69;6307838;20;2044213;-47
2023/10/21 06:24:48;;;;;;;;;1.67;1.67;;;;;20.07;77.31;98094.41;6284060;20;2739873;-47
2023/10/21 06:27:17;;;;;;;;;3.00;1.00;;;;;20.10;77.07;98078.50;6314454;20;2737913;-47
2023/10/21 06:29:45;;;;;;;;;1.33;0.67;;;;;20.06;77.78;98111.78;6314564;20;2729509;-48
2023/10/21 06:32:15;;;;;;;;;3.60;0.80;;;;;20.13;76.65;98129.03;6339228;20;2738263;-47
2023/10/21 06:34:44;;;;;;;;;1.33;0.67;;;;;20.21;77.07;98139.81;6314066;20;2731538;-48
2023/10/21 06:37:12;;;;;;;;;1.67;0.67;;;;;20.13;77.14;98148.97;6310820;20;2725307;-47
2023/10/21 06:39:40;;;;;;;;;0.67;0.67;;;;;20.27;76.59;98160.00;6316904;20;2727492;-47
2023/10/21 06:42:09;;;;;;;;;0.00;0.00;;;;;20.27;75.95;98174.47;6315362;20;2726656;-47
2023/10/21 06:44:39;;;;;;;;;1.80;0.60;;;;;20.45;75.66;98184.09;6337442;20;2723338;-47
2023/10/21 06:47:08;;;;;;;;;0.67;0.67;;;;;20.35;75.85;98179.81;6314702;20;2726366;-47
2023/10/21 06:49:36;;;;;;;;;3.67;0.67;;;;;20.50;74.86;98187.91;6316656;20;2735734;-47
2023/10/21 06:52:06;;;;;;;;;0.50;0.50;;;;;20.52;74.94;98190.47;6338048;20;2729491;-47
2023/10/21 06:54:35;;;;;;;;;5.00;1.40;;;;;20.59;75.15;98188.69;6334470;20;2741995;-48
2023/10/21 06:57:05;;;;;;;;;0.60;0.60;;;;;20.65;74.50;98195.22;6325746;20;2735700;-47
2023/10/21 06:59:34;;;;;;;;;2.67;1.00;;;;;20.57;75.59;98196.22;6310827;20;2736725;-48
2023/10/21 07:02:06;;;;;;;;;3.33;1.33;;;;;20.60;75.21;98193.09;6359967;20;3453432;-47
2023/10/21 07:04:35;;;;;;;;;4.40;1.40;;;;;20.65;74.72;98212.44;6336615;20;2729438;-47
2023/10/21 07:07:06;;;;;;;;;2.67;1.00;;;;;20.67;75.38;98220.41;6309341;20;2744020;-47
2023/10/21 07:09:34;;;;;;;;;2.67;0.67;;;;;20.48;76.52;98217.25;6316970;20;2730450;-47
2023/10/21 07:12:05;;;;;;;;;1.00;0.80;;;;;20.52;76.64;98217.72;6337616;20;2731503;-48
2023/10/21 07:14:35;;;;;;;;;4.25;1.25;;;;;20.67;76.50;98213.09;6337328;20;2627373;-48
2023/10/21 07:17:05;;;;;;;;;1.00;1.00;;;;;20.56;76.72;98225.38;6308643;20;2729577;-47
2023/10/21 07:19:33;;;;;;;;;1.33;0.00;;;;;20.69;76.76;98234.69;6311456;20;2730619;-48
2023/10/21 07:22:04;;;;;;;;;2.40;1.20;;;;;20.79;74.48;98235.22;6336010;20;2731734;-46
2023/10/21 07:24:33;;;;;;;;;2.00;0.33;;;;;20.93;74.29;98249.81;6314047;20;2731557;-47
2023/10/21 07:27:01;;;;;;;;;4.33;0.67;;;;;20.70;75.03;98248.16;6310876;20;2735754;-47
2023/10/21 07:29:33;;;;;;;;;5.80;0.40;;;;;20.66;75.86;98252.28;6353204;20;2473199;-45
2023/10/21 07:32:02;;;;;;;;;2.00;2.00;;;;;20.76;74.81;98263.72;6327475;20;2751417;-48
2023/10/21 07:34:32;;;;;;;;;3.60;2.80;;;;;20.69;76.09;98265.53;6301291;20;2746323;-45
2023/10/21 07:37:01;;;;;;;;;6.00;2.67;;;;;20.54;77.83;98271.06;6268282;20;2745171;-45
2023/10/21 07:39:31;;;;;;;;;0.60;0.60;;;;;20.47;77.63;98274.72;6335522;20;2727370;-45
2023/10/21 07:42:02;;;;;;;;;1.80;0.60;;;;;20.47;77.60;98274.72;6337197;20;2731535;-45
2023/10/21 07:44:31;;;;;;;;;4.00;1.00;;;;;20.62;77.47;98286.47;6313535;20;2752364;-47
2023/10/21 07:46:59;;;;;;;;;1.67;0.00;;;;;20.49;77.54;98289.84;6315198;20;2733597;-48
2023/10/21 07:49:28;;;;;;;;;2.00;0.67;;;;;20.59;77.45;98284.97;6312585;20;2733649;-45
2023/10/21 07:51:58;;;;;;;;;1.50;1.50;;;;;20.59;77.10;98278.69;6338399;20;2735748;-44
2023/10/21 07:54:27;;;;;;;;;0.67;0.67;;;;;20.59;77.38;98295.03;6284644;20;2727374;-48
2023/10/21 07:56:58;;;;;;;;;2.14;0.71;;;;;20.75;76.59;98311.16;6352100;20;3435690;-45
2023/10/21 07:59:28;;;;;;;;;1.80;0.80;;;;;21.02;75.18;98305.97;6323282;20;2734739;-45
2023/10/21 08:01:57;;;;;;;;;1.00;1.00;;;;;20.88;75.15;98312.31;6334015;20;2732657;-45
2023/10/21 08:04:31;;;;;;;;;1.00;0.67;;;;;20.76;74.72;98310.09;6314459;20;2725682;-45
2023/10/21 08:07:01;;;;;;;;;2.60;2.60;;;;;20.92;74.14;98327.28;6336351;20;2747156;-45
2023/10/21 08:09:30;;;;;;;;;1.33;0.67;;;;;20.96;74.18;98323.13;6318766;20;2735803;-49
2023/10/21 08:11:59;;;;;;;;;2.67;0.67;;;;;21.00;73.99;98324.41;6314421;20;2756582;-45
2023/10/21 08:14:30;;;;;;;;;0.00;0.00;;;;;21.03;73.39;98329.47;6318561;20;2728454;-49
2023/10/21 08:17:04;;;;;;;;;3.43;0.29;;;;;20.95;74.09;98335.91;6356462;20;3430582;-45
2023/10/21 08:19:34;;;;;;;;;2.80;0.60;;;;;20.93;73.99;98328.94;6339255;20;2732586;-46
2023/10/21 08:22:05;;;;;;;;;0.60;0.60;;;;;21.11;73.35;98334.81;6337773;20;2728498;-45
2023/10/21 08:24:34;;;;;;;;;0.67;0.67;;;;;21.07;73.22;98336.25;6317704;20;2737771;-46
2023/10/21 08:27:06;;;;;;;;;0.60;0.00;;;;;21.12;73.36;98338.41;6335773;20;2728379;-45
2023/10/21 08:29:34;;;;;;;;;1.00;0.67;;;;;21.02;73.37;98352.34;6318490;20;2729426;-46
2023/10/21 08:32:03;;;;;;;;;0.67;0.67;;;;;20.99;73.64;98342.69;6317194;20;2727489;-45
2023/10/21 08:34:35;;;;;;;;;2.00;0.20;;;;;21.00;73.48;98340.78;6339619;20;2730510;-45
2023/10/21 08:37:07;;;;;;;;;0.67;0.67;;;;;20.96;73.34;98344.97;6315982;20;2731657;-49
2023/10/21 08:39:37;;;;;;;;;2.80;0.80;;;;;21.03;72.95;98348.56;6338755;20;2730599;-45
2023/10/21 08:42:06;;;;;;;;;0.00;0.00;;;;;20.77;74.18;98346.41;6310934;20;2741071;-45
2023/10/21 08:44:38;;;;;;;;;1.67;0.00;;;;;20.71;74.30;98348.03;6313471;20;2729509;-47
2023/10/21 08:47:09;;;;;;;;;1.00;0.00;;;;;20.85;74.07;98348.19;6336996;20;2727464;-47
2023/10/21 08:49:41;;;;;;;;;2.00;1.67;;;;;20.79;74.48;98349.78;6314604;20;2730525;-46
2023/10/21 08:52:14;;;;;;;;;4.40;0.60;;;;;20.91;74.09;98363.78;6335307;20;2720173;-48
2023/10/21 08:54:46;;;;;;;;;0.00;0.00;;;;;21.00;73.14;98362.63;6340753;20;2735710;-47
2023/10/21 08:57:16;;;;;;;;;0.00;0.00;;;;;21.01;73.66;98365.16;6332630;20;2727429;-46
2023/10/21 08:59:45;;;;;;;;;0.00;0.00;;;;;21.13;72.50;98373.66;6315758;20;2732542;-45
2023/10/21 09:02:17;;;;;;;;;2.20;0.00;;;;;21.25;72.77;98377.59;6337851;20;2725291;-47
2023/10/21 09:04:45;;;;;;;;;1.67;0.67;;;;;21.23;72.60;98379.66;6314589;20;2737800;-47
2023/10/21 09:07:15;;;;;;;;;3.20;0.00;;;;;21.30;72.84;98395.25;6335227;20;2727475;-45
2023/10/21 09:09:44;;;;;;;;;0.33;0.33;;;;;21.32;72.62;98404.94;6316277;20;2727367;-48
2023/10/21 09:12:17;;;;;;;;;1.67;0.00;;;;;21.19;73.38;98397.44;6314015;20;2733706;-47
2023/10/21 09:14:52;;;;;;;;;2.80;2.20;;;;;20.89;74.80;98398.59;6335765;20;2748200;-46
2023/10/21 09:17:21;;;;;;;;;4.00;0.67;;;;;20.97;74.87;98403.94;6281744;20;2733641;-46
2023/10/21 09:19:54;;;;;;;;;3.67;2.00;;;;;20.95;75.30;98416.94;6315322;20;2748322;-46
2023/10/21 09:22:28;;;;;;;;;1.33;0.33;;;;;20.95;75.43;98420.50;6314735;20;2732600;-46
2023/10/21 09:25:20;;;;;;;;;1.80;0.00;;;;;20.82;77.54;98434.81;6338832;20;2735803;-48
2023/10/21 09:27:55;;;;;;;;;0.00;0.00;;;;;20.73;78.78;98446.88;6314031;20;2727444;-48
2023/10/21 09:30:30;;;;;;;;;0.67;0.67;;;;;20.55;80.11;98438.25;6312005;20;2734682;-45
2023/10/21 09:33:09;;;;;;;;;0.80;0.80;;;;;20.49;81.91;98447.16;6335175;20;2733698;-46
2023/10/21 09:35:38;;;;;;;;;1.67;1.67;;;;;20.41;82.15;98450.00;6309878;20;2728579;-45
2023/10/21 09:38:18;;;;;;;;;0.67;0.67;;;;;20.44;82.11;98441.44;6313467;20;2732651;-48
2023/10/21 09:40:47;;;;;;;;;1.67;1.67;;;;;20.34;84.17;98449.88;6312924;20;2726513;-47
2023/10/21 09:43:18;;;;;;;;;1.00;1.00;;;;;20.41;83.29;98452.72;6314742;20;2726320;-44
2023/10/21 09:45:49;;;;;;;;;1.33;0.67;;;;;20.11;85.44;98445.34;6312770;20;2728401;-45
2023/10/21 09:48:18;;;;;;;;;0.67;0.67;;;;;20.35;85.59;98446.09;6314388;20;2738233;-45
2023/10/21 09:50:56;;;;;;;;;2.67;1.00;;;;;20.20;86.45;98435.22;6312206;20;2728392;-45
2023/10/21 09:53:39;;;;;;;;;1.40;1.20;;;;;20.15;89.02;98429.47;6334911;20;2735739;-44
2023/10/21 09:56:11;;;;;;;;;3.20;2.00;;;;;20.12;90.21;98418.97;6334728;20;2735690;-46
2023/10/21 09:58:41;;;;;;;;;1.33;0.67;;;;;19.94;91.97;98414.69;6312493;20;2727352;-48
2023/10/21 10:01:13;;;;;;;;;1.00;1.00;;;;;20.18;91.81;98418.19;6314383;20;2724241;-45
2023/10/21 10:03:43;;;;;;;;;4.00;0.67;;;;;20.17;92.16;98425.53;6314980;20;2734739;-45
2023/10/21 10:06:13;;;;;;;;;1.67;1.67;;;;;20.61;91.15;98419.22;6309334;20;2750847;-46
2023/10/21 10:08:41;;;;;;;;;2.00;1.67;;;;;20.88;89.42;98432.38;6311475;20;2745133;-45
2023/10/21 10:11:15;;;;;;;;;3.00;2.00;;;;;20.65;90.27;98429.78;6311346;20;2737803;-47
2023/10/21 10:13:48;;;;;;;;;1.00;0.80;;;;;20.76;89.24;98434.75;6332722;20;2735724;-48
2023/10/21 10:16:27;;;;;;;;;2.00;2.00;;;;;21.10;87.95;98428.66;6311705;20;2735699;-45
2023/10/21 10:18:57;;;;;;;;;2.60;1.00;;;;;21.74;85.19;98435.19;6336204;20;2735688;-47
2023/10/21 10:21:28;;;;;;;;;3.80;0.20;;;;;22.07;83.83;98425.38;6335744;20;2737881;-46
2023/10/21 10:24:04;;;;;;;;;4.80;1.60;;;;;22.03;81.53;98412.31;6332235;20;2748248;-45
2023/10/21 10:26:39;;;;;;;;;5.00;0.60;;;;;22.47;79.02;98419.34;6294993;20;2733655;-45
2023/10/21 10:29:27;;;;;;;;;1.00;0.00;;;;;22.26;78.44;98406.59;6332292;20;2730474;-45
2023/10/21 10:32:16;;;;;;;;;2.40;1.00;;;;;22.44;77.56;98376.84;6332014;20;2741952;-45
2023/10/21 10:34:53;;;;;;;;;4.00;2.80;;;;;22.10;78.83;98394.06;6330653;20;2756520;-47
2023/10/21 10:37:36;;;;;;;;;2.40;1.80;;;;;22.31;77.54;98401.38;6302342;20;2756510;-46
2023/10/21 10:40:33;;;;;;;;;4.00;1.60;;;;;22.26;76.74;98382.00;6303817;20;2754567;-47
2023/10/21 10:43:03;;;;;;;;;4.50;2.50;;;;;22.39;76.21;98390.28;6302448;20;2779451;-45
2023/10/21 10:45:33;;;;;;;;;1.00;1.00;;;;;22.39;76.32;98382.06;6337183;20;2743051;-46
2023/10/21 10:48:07;;;;;;;;;1.00;0.00;;;;;22.01;76.91;98379.72;6335814;20;2733740;-45
2023/10/21 10:50:37;;;;;;;;;1.00;0.00;;;;;22.04;77.38;98392.97;6335006;20;2733637;-45
2023/10/21 10:53:22;;;;;;;;;0.00;0.00;;;;;21.91;77.71;98401.91;6329675;20;2742027;-46
2023/10/21 10:55:55;;;;;;;;;2.40;1.60;;;;;21.89;77.62;98411.38;6328817;20;2743091;-45
2023/10/21 10:58:28;;;;;;;;;1.00;1.00;;;;;21.86;78.06;98411.75;6335588;20;2729451;-46
2023/10/21 11:00:57;;;;;;;;;4.00;1.00;;;;;21.90;78.01;98413.88;6334432;20;2756520;-45
2023/10/21 11:03:33;;;;;;;;;4.00;1.40;;;;;22.20;77.85;98434.75;6303068;20;2756642;-44
2023/10/21 11:06:03;;;;;;;;;0.20;0.20;;;;;21.96;77.94;98428.66;6304017;20;2736812;-46
2023/10/21 11:08:32;;;;;;;;;2.67;1.67;;;;;22.11;76.33;98423.91;6311659;20;2754560;-45
2023/10/21 11:11:06;;;;;;;;;2.00;0.80;;;;;21.98;76.61;98414.78;6336614;20;2730921;-44
2023/10/21 11:13:35;;;;;;;;;3.60;1.40;;;;;22.36;76.32;98418.03;6331734;20;2736754;-44
2023/10/21 11:16:07;;;;;;;;;1.20;0.00;;;;;22.23;75.80;98423.41;6335355;20;2726398;-44
2023/10/21 11:18:37;;;;;;;;;4.00;1.00;;;;;22.10;75.38;98424.97;6334868;20;2745059;-44
2023/10/21 11:21:48;;;;;;;;;1.60;1.60;;;;;22.15;76.08;98432.59;6329867;20;2740148;-45
2023/10/21 11:24:22;;;;;;;;;0.60;0.60;;;;;21.97;75.65;98441.28;6332887;20;2737782;-44
2023/10/21 11:26:53;;;;;;;;;0.60;0.20;;;;;22.30;75.13;98447.03;6330282;20;2737817;-45